createdAt,value
2023-04-17T00:01:42.038Z,26.30
2023-04-17T00:04:13.365Z,28.60
2023-04-17T00:06:43.444Z,27.93
2023-04-17T00:09:12.353Z,27.43
2023-04-17T00:11:39.445Z,27.97
2023-04-17T00:14:06.283Z,28.60
2023-04-17T00:16:33.202Z,28.73
2023-04-17T00:19:00.037Z,26.13
2023-04-17T00:21:26.867Z,25.83
2023-04-17T00:23:53.573Z,28.87
2023-04-17T00:26:20.363Z,26.50
2023-04-17T00:28:49.071Z,24.93
2023-04-17T00:31:16.273Z,27.17
2023-04-17T00:33:43.571Z,27.60
2023-04-17T00:36:13.683Z,27.97
2023-04-17T00:38:40.599Z,28.17
2023-04-17T00:41:07.358Z,28.77
2023-04-17T00:43:34.255Z,28.03
2023-04-17T00:46:02.094Z,28.33
2023-04-17T00:48:29.017Z,29.63
2023-04-17T00:50:56.912Z,28.57
2023-04-17T00:53:24.353Z,30.50
2023-04-17T00:55:52.186Z,30.17
2023-04-17T00:58:19.490Z,29.80
2023-04-17T01:00:46.376Z,30.37
2023-04-17T01:03:14.707Z,29.47
2023-04-17T01:05:42.269Z,29.83
2023-04-17T01:08:09.181Z,31.30
2023-04-17T01:10:36.103Z,29.23
2023-04-17T01:13:03.875Z,30.20
2023-04-17T01:15:31.080Z,30.67
2023-04-17T01:17:58.320Z,30.33
2023-04-17T01:20:31.368Z,31.40
2023-04-17T01:22:58.720Z,30.90
2023-04-17T01:25:26.067Z,31.50
2023-04-17T01:27:52.943Z,32.10
2023-04-17T01:30:20.231Z,31.73
2023-04-17T01:33:01.267Z,33.10
2023-04-17T01:35:28.763Z,32.67
2023-04-17T01:37:55.969Z,31.50
2023-04-17T01:40:22.851Z,33.20
2023-04-17T01:42:49.716Z,33.07
2023-04-17T01:45:16.668Z,31.60
2023-04-17T01:47:44.027Z,33.10
2023-04-17T01:50:11.278Z,32.97
2023-04-17T01:52:40.019Z,31.60
2023-04-17T01:55:07.194Z,32.27
2023-04-17T01:57:34.264Z,32.17
2023-04-17T02:00:01.078Z,31.83
2023-04-17T02:02:27.876Z,31.07
2023-04-17T02:04:54.780Z,32.80
2023-04-17T02:07:21.815Z,31.07
2023-04-17T02:09:48.574Z,31.73
2023-04-17T02:12:16.017Z,32.97
2023-04-17T02:14:43.237Z,31.80
2023-04-17T02:17:10.498Z,31.70
2023-04-17T02:19:37.338Z,31.17
2023-04-17T02:22:04.428Z,30.73
2023-04-17T02:24:31.635Z,31.53
2023-04-17T02:27:00.468Z,29.30
2023-04-17T02:29:27.250Z,31.47
2023-04-17T02:31:54.237Z,31.27
2023-04-17T02:34:21.242Z,31.67
2023-04-17T02:36:51.142Z,31.17
2023-04-17T02:39:21.378Z,32.43
2023-04-17T02:41:48.113Z,31.73
2023-04-17T02:44:15.473Z,32.17
2023-04-17T02:46:42.248Z,31.83
2023-04-17T02:49:09.779Z,32.13
2023-04-17T02:51:38.165Z,32.27
2023-04-17T02:54:05.641Z,32.27
2023-04-17T02:56:32.659Z,32.53
2023-04-17T02:59:00.169Z,31.53
2023-04-17T03:01:28.110Z,32.00
2023-04-17T03:03:55.199Z,32.60
2023-04-17T03:06:24.889Z,31.67
2023-04-17T03:08:51.712Z,33.53
2023-04-17T03:11:19.334Z,31.77
2023-04-17T03:13:46.363Z,31.70
2023-04-17T03:16:14.105Z,32.60
2023-04-17T03:18:42.477Z,33.63
2023-04-17T03:21:09.504Z,34.57
2023-04-17T03:23:36.571Z,31.93
2023-04-17T03:26:03.307Z,30.80
2023-04-17T03:28:33.112Z,32.97
2023-04-17T03:31:01.347Z,32.93
2023-04-17T03:33:29.631Z,33.13
2023-04-17T03:35:58.090Z,29.73
2023-04-17T03:38:24.866Z,31.57
2023-04-17T03:40:52.364Z,33.50
2023-04-17T03:43:20.112Z,34.83
2023-04-17T03:45:46.928Z,34.17
2023-04-17T03:48:14.006Z,35.27
2023-04-17T03:50:41.742Z,35.00
2023-04-17T03:53:09.432Z,33.53
2023-04-17T03:55:36.442Z,36.30
2023-04-17T03:58:03.517Z,34.07
2023-04-17T04:00:32.917Z,34.97
2023-04-17T04:03:06.612Z,34.60
2023-04-17T04:05:39.038Z,33.43
2023-04-17T04:08:07.411Z,35.03
2023-04-17T04:10:44.319Z,35.87
2023-04-17T04:13:13.753Z,36.60
2023-04-17T04:15:43.696Z,37.60
2023-04-17T04:18:11.747Z,35.97
2023-04-17T04:20:38.564Z,35.00
2023-04-17T04:23:16.934Z,35.97
2023-04-17T04:25:44.899Z,35.97
2023-04-17T04:28:24.319Z,35.60
2023-04-17T04:30:53.786Z,33.63
2023-04-17T04:33:25.185Z,36.07
2023-04-17T04:35:52.142Z,31.87
2023-04-17T04:38:19.122Z,36.97
2023-04-17T04:40:52.579Z,36.50
2023-04-17T04:43:22.166Z,36.13
2023-04-17T04:45:51.608Z,38.40
2023-04-17T04:48:18.657Z,36.13
2023-04-17T04:50:45.689Z,38.00
2023-04-17T04:53:13.172Z,33.97
2023-04-17T04:55:46.090Z,35.57
2023-04-17T04:58:13.554Z,38.20
2023-04-17T05:00:41.408Z,38.43
2023-04-17T05:03:13.872Z,38.77
2023-04-17T05:05:42.013Z,38.07
2023-04-17T05:08:11.502Z,38.33
2023-04-17T05:10:39.090Z,38.03
2023-04-17T05:13:08.152Z,36.87
2023-04-17T05:15:34.881Z,37.37
2023-04-17T05:18:02.280Z,38.57
2023-04-17T05:20:32.713Z,39.93
2023-04-17T05:22:59.473Z,41.40
2023-04-17T05:25:26.286Z,40.67
2023-04-17T05:27:55.228Z,40.80
2023-04-17T05:30:22.228Z,40.20
2023-04-17T05:32:54.647Z,37.13
2023-04-17T05:35:38.249Z,35.17
2023-04-17T05:38:05.587Z,34.73
2023-04-17T05:40:33.446Z,37.20
2023-04-17T05:43:07.574Z,35.77
2023-04-17T05:45:35.507Z,36.70
2023-04-17T05:48:02.347Z,31.73
2023-04-17T05:50:29.271Z,35.90
2023-04-17T05:52:56.718Z,35.30
2023-04-17T05:55:27.013Z,38.57
2023-04-17T05:57:58.121Z,38.37
2023-04-17T06:00:25.308Z,40.33
2023-04-17T06:02:57.908Z,42.00
2023-04-17T06:05:32.082Z,40.63
2023-04-17T06:07:58.834Z,43.83
2023-04-17T06:10:26.801Z,45.73
2023-04-17T06:12:54.050Z,37.83
2023-04-17T06:15:21.549Z,45.63
2023-04-17T06:17:49.088Z,42.57
2023-04-17T06:20:15.894Z,42.27
2023-04-17T06:22:44.515Z,44.50
2023-04-17T06:25:11.216Z,49.50
2023-04-17T06:27:38.603Z,48.17
2023-04-17T06:30:05.849Z,50.37
2023-04-17T06:32:43.561Z,46.83
2023-04-17T06:35:11.422Z,47.87
2023-04-17T06:37:43.807Z,49.70
2023-04-17T06:40:12.482Z,47.57
2023-04-17T06:42:40.500Z,47.80
2023-04-17T06:45:12.014Z,51.83
2023-04-17T06:47:38.832Z,53.47
2023-04-17T06:50:05.996Z,51.87
2023-04-17T06:52:34.528Z,53.87
2023-04-17T06:55:02.492Z,52.80
2023-04-17T06:57:29.317Z,46.00
2023-04-17T06:59:56.317Z,52.07
2023-04-17T07:02:23.232Z,45.80
2023-04-17T07:04:50.363Z,53.07
2023-04-17T07:07:17.229Z,54.40
2023-04-17T07:09:45.412Z,53.07
2023-04-17T07:12:12.197Z,55.93
2023-04-17T07:14:40.761Z,49.77
2023-04-17T07:17:07.616Z,53.67
2023-04-17T07:19:34.490Z,53.47
2023-04-17T07:22:01.256Z,58.67
2023-04-17T07:24:27.968Z,55.13
2023-04-17T07:26:54.694Z,49.93
2023-04-17T07:29:21.388Z,56.93
2023-04-17T07:31:48.356Z,59.10
2023-04-17T07:34:15.114Z,49.90
2023-04-17T07:36:41.802Z,60.07
2023-04-17T07:39:08.470Z,58.00
2023-04-17T07:41:35.142Z,57.90
2023-04-17T07:44:03.709Z,55.77
2023-04-17T07:46:30.596Z,59.70
2023-04-17T07:48:57.340Z,53.47
2023-04-17T07:51:24.412Z,59.97
2023-04-17T07:53:51.185Z,58.07
2023-04-17T07:56:17.914Z,58.93
2023-04-17T07:58:45.397Z,60.63
2023-04-17T08:01:12.220Z,60.17
2023-04-17T08:03:41.973Z,61.70
2023-04-17T08:06:08.932Z,59.10
2023-04-17T08:08:35.627Z,61.77
2023-04-17T08:11:02.272Z,62.30
2023-04-17T08:13:32.415Z,54.80
2023-04-17T08:15:59.773Z,44.50
2023-04-17T08:18:26.456Z,53.63
2023-04-17T08:20:53.384Z,58.77
2023-04-17T08:23:20.098Z,56.20
2023-04-17T08:25:46.913Z,60.80
2023-04-17T08:28:13.602Z,51.47
2023-04-17T08:30:40.358Z,57.40
2023-04-17T08:33:07.119Z,57.00
2023-04-17T08:35:33.848Z,56.97
2023-04-17T08:38:00.719Z,53.27
2023-04-17T08:40:27.572Z,59.77
2023-04-17T08:42:54.496Z,56.17
2023-04-17T08:45:23.010Z,59.27
2023-04-17T08:47:49.798Z,58.40
2023-04-17T08:50:18.064Z,58.30
2023-04-17T08:52:48.589Z,63.67
2023-04-17T08:55:16.281Z,50.13
2023-04-17T08:57:55.228Z,58.80
2023-04-17T09:00:25.788Z,52.10
2023-04-17T09:02:54.482Z,60.43
2023-04-17T09:05:22.572Z,49.17
2023-04-17T09:08:06.886Z,48.83
2023-04-17T09:10:41.153Z,53.93
2023-04-17T09:13:08.810Z,59.83
2023-04-17T09:15:36.377Z,51.83
2023-04-17T09:18:03.757Z,49.37
2023-04-17T09:20:30.514Z,52.37
2023-04-17T09:23:01.142Z,54.03
2023-04-17T09:25:28.407Z,57.17
2023-04-17T09:27:56.892Z,52.50
2023-04-17T09:30:27.112Z,53.87
2023-04-17T09:33:02.996Z,51.07
2023-04-17T09:35:29.867Z,57.10
2023-04-17T09:37:59.424Z,43.60
2023-04-17T09:40:28.082Z,53.33
2023-04-17T09:42:54.720Z,50.13
2023-04-17T09:45:22.559Z,51.83
2023-04-17T09:47:50.295Z,51.43
2023-04-17T09:50:24.852Z,55.10
2023-04-17T09:52:52.541Z,49.13
2023-04-17T09:55:21.599Z,53.17
2023-04-17T09:57:49.163Z,46.53
2023-04-17T10:00:17.485Z,50.17
2023-04-17T10:02:44.483Z,46.80
2023-04-17T10:05:11.282Z,43.37
2023-04-17T10:07:38.825Z,47.70
2023-04-17T10:10:09.644Z,47.97
2023-04-17T10:12:37.207Z,50.13
2023-04-17T10:15:04.991Z,50.17
2023-04-17T10:17:32.513Z,47.37
2023-04-17T10:20:20.588Z,50.20
2023-04-17T10:22:57.125Z,36.53
2023-04-17T10:25:24.646Z,41.77
2023-04-17T10:27:55.206Z,31.47
2023-04-17T10:30:23.450Z,36.60
2023-04-17T10:33:09.887Z,35.77
2023-04-17T10:35:37.027Z,32.97
2023-04-17T10:38:05.574Z,29.23
2023-04-17T10:40:33.988Z,35.10
2023-04-17T10:43:06.781Z,30.40
2023-04-17T10:45:51.989Z,30.13
2023-04-17T10:48:33.336Z,30.70
2023-04-17T10:51:00.997Z,30.50
2023-04-17T10:53:37.219Z,29.97
2023-04-17T10:56:04.189Z,26.77
2023-04-17T10:58:31.929Z,30.93
2023-04-17T11:01:02.755Z,33.00
2023-04-17T11:03:30.230Z,32.23
2023-04-17T11:05:59.019Z,29.27
2023-04-17T11:08:25.853Z,22.80
2023-04-17T11:10:53.778Z,19.63
2023-04-17T11:13:20.541Z,21.20
2023-04-17T11:15:47.382Z,22.63
2023-04-17T11:18:14.853Z,20.10
2023-04-17T11:20:41.627Z,15.90
2023-04-17T11:23:08.534Z,19.13
2023-04-17T11:25:35.919Z,19.40
2023-04-17T11:28:05.006Z,17.33
2023-04-17T11:30:36.051Z,14.97
2023-04-17T11:33:04.382Z,19.83
2023-04-17T11:35:34.181Z,20.00
2023-04-17T11:38:14.587Z,15.67
2023-04-17T11:40:44.814Z,17.63
2023-04-17T11:43:11.933Z,13.77
2023-04-17T11:45:40.684Z,13.73
2023-04-17T11:48:09.043Z,12.07
2023-04-17T11:50:36.083Z,14.67
2023-04-17T11:53:03.460Z,14.57
2023-04-17T11:55:34.560Z,14.83
2023-04-17T11:58:02.987Z,13.80
2023-04-17T12:00:30.277Z,14.03
2023-04-17T12:02:58.060Z,12.00
2023-04-17T12:05:26.530Z,12.47
2023-04-17T12:07:59.272Z,11.63
2023-04-17T12:10:35.789Z,10.67
2023-04-17T12:13:02.517Z,11.87
2023-04-17T12:15:29.450Z,11.97
2023-04-17T12:17:56.217Z,11.20
2023-04-17T12:20:24.729Z,11.67
2023-04-17T12:22:52.820Z,11.60
2023-04-17T12:25:19.623Z,12.37
2023-04-17T12:27:48.814Z,10.77
2023-04-17T12:30:16.884Z,10.53
2023-04-17T12:32:48.772Z,11.97
2023-04-17T12:35:16.176Z,12.00
2023-04-17T12:37:48.693Z,10.30
2023-04-17T12:40:17.064Z,12.10
2023-04-17T12:42:49.393Z,9.93
2023-04-17T12:45:17.235Z,12.30
2023-04-17T12:47:44.037Z,13.07
2023-04-17T12:50:12.067Z,12.80
2023-04-17T12:52:39.077Z,9.03
2023-04-17T12:55:07.640Z,11.10
2023-04-17T12:57:36.010Z,12.80
2023-04-17T13:00:03.038Z,11.97
2023-04-17T13:02:30.350Z,11.43
2023-04-17T13:04:57.163Z,10.33
2023-04-17T13:07:23.870Z,10.27
2023-04-17T13:09:50.639Z,9.87
2023-04-17T13:12:17.495Z,10.80
2023-04-17T13:14:44.238Z,10.77
2023-04-17T13:17:11.079Z,9.17
2023-04-17T13:19:40.064Z,10.37
2023-04-17T13:22:07.695Z,8.00
2023-04-17T13:24:36.057Z,9.17
2023-04-17T13:27:03.670Z,10.17
2023-04-17T13:29:30.510Z,9.40
2023-04-17T13:31:57.736Z,10.33
2023-04-17T13:34:24.512Z,9.53
2023-04-17T13:36:51.524Z,9.33
2023-04-17T13:39:18.248Z,8.10
2023-04-17T13:41:45.018Z,8.30
2023-04-17T13:44:12.743Z,8.67
2023-04-17T13:46:39.797Z,8.80
2023-04-17T13:49:07.235Z,8.70
2023-04-17T13:51:33.975Z,9.80
2023-04-17T13:54:00.715Z,8.30
2023-04-17T13:56:27.585Z,7.57
2023-04-17T13:58:54.742Z,7.30
2023-04-17T14:01:21.662Z,7.57
2023-04-17T14:03:48.707Z,7.80
2023-04-17T14:06:17.871Z,7.73
2023-04-17T14:08:45.758Z,6.27
2023-04-17T14:11:13.185Z,7.30
2023-04-17T14:13:39.903Z,7.93
2023-04-17T14:16:06.935Z,7.67
2023-04-17T14:18:33.676Z,7.53
2023-04-17T14:21:01.038Z,6.47
2023-04-17T14:23:27.910Z,5.70
2023-04-17T14:25:54.580Z,7.63
2023-04-17T14:28:21.476Z,8.03
2023-04-17T14:30:48.484Z,7.30
2023-04-17T14:33:15.189Z,6.07
2023-04-17T14:35:41.857Z,5.67
2023-04-17T14:38:08.605Z,6.90
2023-04-17T14:40:35.393Z,6.97
2023-04-17T14:43:02.455Z,6.37
2023-04-17T14:45:29.171Z,6.10
2023-04-17T14:47:56.003Z,6.20
2023-04-17T14:50:22.877Z,6.50
2023-04-17T14:52:49.668Z,6.17
2023-04-17T14:55:16.418Z,6.30
2023-04-17T14:57:44.026Z,6.27
2023-04-17T15:00:10.992Z,6.07
2023-04-17T15:02:39.548Z,6.10
2023-04-17T15:05:06.766Z,6.13
2023-04-17T15:07:33.482Z,6.07
2023-04-17T15:10:00.359Z,7.13
2023-04-17T15:12:27.405Z,7.03
2023-04-17T15:14:54.219Z,5.80
2023-04-17T15:17:21.111Z,5.80
2023-04-17T15:19:47.846Z,6.73
2023-04-17T15:22:14.604Z,6.23
2023-04-17T15:24:41.315Z,6.70
2023-04-17T15:27:07.988Z,6.53
2023-04-17T15:29:34.779Z,6.30
2023-04-17T15:32:02.590Z,5.97
2023-04-17T15:34:29.369Z,6.57
2023-04-17T15:36:57.548Z,6.50
2023-04-17T15:39:24.245Z,6.37
2023-04-17T15:41:50.989Z,6.80
2023-04-17T15:44:17.771Z,6.80
2023-04-17T15:46:44.499Z,6.73
2023-04-17T15:49:11.697Z,6.70
2023-04-17T15:51:40.280Z,7.20
2023-04-17T15:54:08.587Z,5.77
2023-04-17T15:56:35.376Z,6.77
2023-04-17T15:59:02.194Z,6.20
2023-04-17T16:01:29.116Z,6.37
2023-04-17T16:03:56.023Z,8.37
2023-04-17T16:06:23.008Z,7.73
2023-04-17T16:08:49.906Z,6.97
2023-04-17T16:11:16.628Z,7.57
2023-04-17T16:13:43.368Z,7.40
2023-04-17T16:16:10.925Z,7.80
2023-04-17T16:18:37.783Z,6.87
2023-04-17T16:21:04.533Z,5.40
2023-04-17T16:23:31.268Z,7.27
2023-04-17T16:25:57.928Z,6.40
2023-04-17T16:28:24.914Z,6.57
2023-04-17T16:30:51.923Z,6.00
2023-04-17T16:33:18.857Z,6.67
2023-04-17T16:35:45.642Z,6.63
2023-04-17T16:38:12.447Z,5.63
2023-04-17T16:40:39.288Z,5.77
2023-04-17T16:43:06.172Z,6.10
2023-04-17T16:45:33.002Z,5.07
2023-04-17T16:47:59.791Z,6.23
2023-04-17T16:50:26.784Z,6.07
2023-04-17T16:52:53.699Z,6.20
2023-04-17T16:55:20.435Z,6.80
2023-04-17T16:57:48.140Z,6.93
2023-04-17T17:00:15.171Z,5.97
2023-04-17T17:02:42.100Z,5.83
2023-04-17T17:05:09.237Z,7.47
2023-04-17T17:07:36.460Z,7.17
2023-04-17T17:10:03.682Z,7.33
2023-04-17T17:12:33.953Z,7.47
2023-04-17T17:15:00.785Z,6.90
2023-04-17T17:17:27.565Z,6.57
2023-04-17T17:19:54.286Z,6.70
2023-04-17T17:22:21.127Z,6.67
2023-04-17T17:24:47.890Z,6.10
2023-04-17T17:27:15.519Z,6.37
2023-04-17T17:29:42.248Z,6.83
2023-04-17T17:32:09.518Z,7.20
2023-04-17T17:34:36.349Z,8.00
2023-04-17T17:37:03.123Z,6.90
2023-04-17T17:39:29.959Z,7.43
2023-04-17T17:41:57.904Z,7.50
2023-04-17T17:44:24.942Z,7.40
2023-04-17T17:46:51.710Z,7.73
2023-04-17T17:49:18.505Z,8.10
2023-04-17T17:51:45.220Z,8.07
2023-04-17T17:54:12.255Z,6.83
2023-04-17T17:56:39.112Z,9.03
2023-04-17T17:59:05.847Z,8.10
2023-04-17T18:01:32.617Z,8.00
2023-04-17T18:03:59.493Z,8.47
2023-04-17T18:06:26.877Z,7.13
2023-04-17T18:08:53.738Z,6.77
2023-04-17T18:11:21.407Z,7.23
2023-04-17T18:13:48.139Z,7.47
2023-04-17T18:16:14.899Z,7.00
2023-04-17T18:18:41.641Z,7.40
2023-04-17T18:21:09.062Z,7.70
2023-04-17T18:23:35.861Z,7.20
2023-04-17T18:26:03.198Z,7.77
2023-04-17T18:28:30.149Z,7.17
2023-04-17T18:30:56.880Z,7.17
2023-04-17T18:33:23.629Z,6.83
2023-04-17T18:35:50.416Z,6.90
2023-04-17T18:38:17.171Z,7.27
2023-04-17T18:40:44.209Z,7.20
2023-04-17T18:43:10.961Z,6.87
2023-04-17T18:45:37.683Z,6.93
2023-04-17T18:48:04.575Z,8.10
2023-04-17T18:50:31.404Z,7.23
2023-04-17T18:52:58.146Z,6.60
2023-04-17T18:55:24.938Z,7.50
2023-04-17T18:57:51.645Z,7.60
2023-04-17T19:00:18.722Z,7.33
2023-04-17T19:02:45.949Z,9.17
2023-04-17T19:05:12.932Z,8.90
2023-04-17T19:07:39.698Z,7.30
2023-04-17T19:10:07.294Z,7.07
2023-04-17T19:12:36.172Z,7.70
2023-04-17T19:15:03.321Z,8.00
2023-04-17T19:17:30.085Z,7.00
2023-04-17T19:19:56.947Z,6.87
2023-04-17T19:22:23.664Z,7.17
2023-04-17T19:24:53.006Z,7.73
2023-04-17T19:27:20.223Z,7.57
2023-04-17T19:29:47.531Z,7.47
2023-04-17T19:32:16.817Z,7.37
2023-04-17T19:34:44.468Z,8.40
2023-04-17T19:37:11.237Z,7.60
2023-04-17T19:39:37.943Z,7.97
2023-04-17T19:42:04.792Z,8.23
2023-04-17T19:44:31.614Z,7.90
2023-04-17T19:46:58.455Z,7.03
2023-04-17T19:49:25.246Z,8.10
2023-04-17T19:51:51.961Z,7.73
2023-04-17T19:54:18.725Z,8.17
2023-04-17T19:56:45.442Z,7.33
2023-04-17T19:59:13.582Z,7.30
2023-04-17T20:01:43.412Z,8.00
2023-04-17T20:04:10.965Z,8.33
2023-04-17T20:06:37.916Z,8.50
2023-04-17T20:09:06.378Z,7.60
2023-04-17T20:11:33.163Z,8.70
2023-04-17T20:13:59.873Z,9.00
2023-04-17T20:16:26.671Z,8.80
2023-04-17T20:18:53.457Z,8.70
2023-04-17T20:21:20.190Z,9.07
2023-04-17T20:23:47.861Z,8.27
2023-04-17T20:26:15.313Z,8.70
2023-04-17T20:28:42.185Z,9.33
2023-04-17T20:31:09.010Z,9.30
2023-04-17T20:33:35.930Z,9.23
2023-04-17T20:36:03.283Z,8.60
2023-04-17T20:38:30.046Z,8.83
2023-04-17T20:40:56.806Z,9.67
2023-04-17T20:43:23.612Z,9.70
2023-04-17T20:45:50.657Z,9.87
2023-04-17T20:48:18.973Z,9.97
2023-04-17T20:50:46.221Z,9.87
2023-04-17T20:53:13.103Z,9.47
2023-04-17T20:55:40.168Z,9.17
2023-04-17T20:58:07.162Z,9.33
2023-04-17T21:00:34.932Z,9.77
2023-04-17T21:03:02.006Z,9.37
2023-04-17T21:05:29.408Z,9.30
2023-04-17T21:07:57.844Z,9.20
2023-04-17T21:10:24.601Z,9.47
2023-04-17T21:12:52.182Z,9.27
2023-04-17T21:15:19.040Z,9.80
2023-04-17T21:17:47.952Z,9.73
2023-04-17T21:20:15.095Z,9.80
2023-04-17T21:22:41.945Z,9.83
2023-04-17T21:25:09.339Z,10.60
2023-04-17T21:27:36.316Z,10.20
2023-04-17T21:30:04.098Z,10.30
2023-04-17T21:32:31.667Z,10.80
2023-04-17T21:34:58.512Z,10.87
2023-04-17T21:37:25.276Z,11.07
2023-04-17T21:39:52.074Z,10.73
2023-04-17T21:42:19.387Z,10.33
2023-04-17T21:44:46.174Z,11.10
2023-04-17T21:47:14.738Z,11.83
2023-04-17T21:49:41.781Z,10.77
2023-04-17T21:52:08.458Z,10.87
2023-04-17T21:54:35.260Z,10.50
2023-04-17T21:57:02.330Z,9.93
2023-04-17T21:59:29.080Z,12.10
2023-04-17T22:01:56.081Z,10.50
2023-04-17T22:04:22.836Z,10.70
2023-04-17T22:06:51.850Z,10.47
2023-04-17T22:09:19.035Z,11.10
2023-04-17T22:11:46.128Z,10.63
2023-04-17T22:14:13.765Z,11.93
2023-04-17T22:16:40.821Z,10.80
2023-04-17T22:19:07.543Z,10.87
2023-04-17T22:21:34.389Z,10.50
2023-04-17T22:24:01.179Z,11.10
2023-04-17T22:26:27.913Z,11.57
2023-04-17T22:28:54.635Z,11.67
2023-04-17T22:31:21.428Z,11.90
2023-04-17T22:33:48.142Z,13.10
2023-04-17T22:36:14.903Z,12.00
2023-04-17T22:38:41.949Z,12.63
2023-04-17T22:41:08.785Z,13.23
2023-04-17T22:43:35.762Z,13.70
2023-04-17T22:46:03.160Z,12.80
2023-04-17T22:48:29.860Z,12.63
2023-04-17T22:50:56.654Z,12.73
2023-04-17T22:53:23.713Z,13.00
2023-04-17T22:56:00.630Z,12.40
2023-04-17T22:58:27.916Z,12.63
2023-04-17T23:00:54.551Z,11.53
2023-04-17T23:03:21.576Z,11.60
2023-04-17T23:05:48.377Z,12.47
2023-04-17T23:08:15.151Z,11.50
2023-04-17T23:10:41.979Z,11.80
2023-04-17T23:13:08.595Z,12.23
2023-04-17T23:15:35.420Z,12.37
2023-04-17T23:18:02.609Z,12.00
2023-04-17T23:20:29.256Z,12.80
2023-04-17T23:22:55.975Z,12.00
2023-04-17T23:25:22.755Z,11.43
2023-04-17T23:27:49.423Z,12.53
2023-04-17T23:30:16.158Z,12.57
2023-04-17T23:32:43.635Z,12.50
2023-04-17T23:35:10.425Z,13.70
2023-04-17T23:37:37.221Z,13.17
2023-04-17T23:40:04.005Z,13.47
2023-04-17T23:42:31.019Z,13.60
2023-04-17T23:44:58.419Z,13.07
2023-04-17T23:47:25.179Z,13.93
2023-04-17T23:49:51.995Z,12.80
2023-04-17T23:52:19.104Z,12.97
2023-04-17T23:54:45.843Z,13.70
2023-04-17T23:57:12.491Z,13.07
2023-04-17T23:59:40.109Z,13.97
